Terminal Aerodrome Forecast
Issued by NWS

Home | Current Version | Previous Version | Text Only | Print | Product List | Glossary On
Versions: 1 2 3 4 5 6 7 8 9 10 11 12 13 14 15 16 17 18 19 20
000
FTUS46 KEKA 270526
TAFCEC
TAF
KCEC 270526Z 2706/2806 17010KT P6SM OVC150
     FM271000 16012KT P6SM OVC100
     FM271500 16015KT P6SM -RA SCT020 BKN050 OVC100
     FM271800 15015KT 5SM RA BR BKN020 OVC050
     FM280000 17012KT 3SM -RA BR OVC015=

USA.gov is the U.S. government's official web portal to all federal, state and local government web resources and services.